sensor_id;sensor_type;location;lat;lon;timestamp;temperature;humidity
3380;DHT22;1703;51.964;7.642;2022-07-29T00:01:16;19.80;99.90
3380;DHT22;1703;51.964;7.642;2022-07-29T00:03:43;19.80;99.90
3380;DHT22;1703;51.964;7.642;2022-07-29T00:06:11;19.80;99.90
3380;DHT22;1703;51.964;7.642;2022-07-29T00:08:37;19.90;99.90
3380;DHT22;1703;51.964;7.642;2022-07-29T00:11:04;19.80;99.90
3380;DHT22;1703;51.964;7.642;2022-07-29T00:13:31;19.80;99.90
3380;DHT22;1703;51.964;7.642;2022-07-29T00:15:58;19.80;99.90
3380;DHT22;1703;51.964;7.642;2022-07-29T00:18:25;19.80;99.90
3380;DHT22;1703;51.964;7.642;2022-07-29T00:20:51;19.90;99.90
3380;DHT22;1703;51.964;7.642;2022-07-29T00:23:19;19.80;99.90
3380;DHT22;1703;51.964;7.642;2022-07-29T00:25:46;19.80;99.90
3380;DHT22;1703;51.964;7.642;2022-07-29T00:28:13;19.70;99.90
3380;DHT22;1703;51.964;7.642;2022-07-29T00:30:40;19.80;99.90
3380;DHT22;1703;51.964;7.642;2022-07-29T00:33:08;19.80;99.90
3380;DHT22;1703;51.964;7.642;2022-07-29T00:35:35;19.80;99.90
3380;DHT22;1703;51.964;7.642;2022-07-29T00:38:10;19.70;99.90
3380;DHT22;1703;51.964;7.642;2022-07-29T00:40:39;19.70;99.90
3380;DHT22;1703;51.964;7.642;2022-07-29T00:43:06;19.60;99.90
3380;DHT22;1703;51.964;7.642;2022-07-29T00:45:33;19.70;99.90
3380;DHT22;1703;51.964;7.642;2022-07-29T00:48:00;19.60;99.90
3380;DHT22;1703;51.964;7.642;2022-07-29T00:50:26;19.70;99.90
3380;DHT22;1703;51.964;7.642;2022-07-29T00:52:53;19.70;99.90
3380;DHT22;1703;51.964;7.642;2022-07-29T00:55:20;19.60;99.90
3380;DHT22;1703;51.964;7.642;2022-07-29T00:57:49;19.50;99.90
3380;DHT22;1703;51.964;7.642;2022-07-29T01:00:19;19.50;99.90
3380;DHT22;1703;51.964;7.642;2022-07-29T01:02:46;19.60;99.90
3380;DHT22;1703;51.964;7.642;2022-07-29T01:05:15;19.60;99.90
3380;DHT22;1703;51.964;7.642;2022-07-29T01:07:43;19.50;99.90
3380;DHT22;1703;51.964;7.642;2022-07-29T01:10:12;19.50;99.90
3380;DHT22;1703;51.964;7.642;2022-07-29T01:12:40;19.40;99.90
3380;DHT22;1703;51.964;7.642;2022-07-29T01:15:09;19.40;99.90
3380;DHT22;1703;51.964;7.642;2022-07-29T01:17:39;19.40;99.90
3380;DHT22;1703;51.964;7.642;2022-07-29T01:20:12;19.30;99.90
3380;DHT22;1703;51.964;7.642;2022-07-29T01:23:00;19.30;99.90
3380;DHT22;1703;51.964;7.642;2022-07-29T01:28:49;19.40;99.90
3380;DHT22;1703;51.964;7.642;2022-07-29T01:31:22;19.20;99.90
3380;DHT22;1703;51.964;7.642;2022-07-29T01:34:03;19.20;99.90
3380;DHT22;1703;51.964;7.642;2022-07-29T01:36:35;19.20;99.90
3380;DHT22;1703;51.964;7.642;2022-07-29T01:39:06;19.30;99.90
3380;DHT22;1703;51.964;7.642;2022-07-29T01:41:36;19.30;99.90
3380;DHT22;1703;51.964;7.642;2022-07-29T01:44:11;19.30;99.90
3380;DHT22;1703;51.964;7.642;2022-07-29T01:46:44;19.20;99.90
3380;DHT22;1703;51.964;7.642;2022-07-29T01:49:15;19.20;99.90
3380;DHT22;1703;51.964;7.642;2022-07-29T01:51:47;19.20;99.90
3380;DHT22;1703;51.964;7.642;2022-07-29T01:54:18;19.00;99.90
3380;DHT22;1703;51.964;7.642;2022-07-29T01:56:49;19.00;99.90
3380;DHT22;1703;51.964;7.642;2022-07-29T01:59:19;18.90;99.90
3380;DHT22;1703;51.964;7.642;2022-07-29T02:01:48;18.90;99.90
3380;DHT22;1703;51.964;7.642;2022-07-29T02:04:18;18.90;99.90
3380;DHT22;1703;51.964;7.642;2022-07-29T02:06:48;19.00;99.90
3380;DHT22;1703;51.964;7.642;2022-07-29T02:09:16;19.10;99.90
3380;DHT22;1703;51.964;7.642;2022-07-29T02:11:48;19.00;99.90
3380;DHT22;1703;51.964;7.642;2022-07-29T02:14:20;19.00;99.90
3380;DHT22;1703;51.964;7.642;2022-07-29T02:16:48;19.00;99.90
3380;DHT22;1703;51.964;7.642;2022-07-29T02:19:17;18.90;99.90
3380;DHT22;1703;51.964;7.642;2022-07-29T02:21:46;18.90;99.90
3380;DHT22;1703;51.964;7.642;2022-07-29T02:24:14;18.90;99.90
3380;DHT22;1703;51.964;7.642;2022-07-29T02:26:43;19.00;99.90
3380;DHT22;1703;51.964;7.642;2022-07-29T02:29:12;19.00;99.90
3380;DHT22;1703;51.964;7.642;2022-07-29T02:31:44;19.00;99.90
3380;DHT22;1703;51.964;7.642;2022-07-29T02:34:13;19.00;99.90
3380;DHT22;1703;51.964;7.642;2022-07-29T02:36:42;18.90;99.90
3380;DHT22;1703;51.964;7.642;2022-07-29T02:39:10;18.90;99.90
3380;DHT22;1703;51.964;7.642;2022-07-29T02:41:43;18.90;99.90
3380;DHT22;1703;51.964;7.642;2022-07-29T02:44:12;18.90;99.90
3380;DHT22;1703;51.964;7.642;2022-07-29T02:46:45;18.80;99.90
3380;DHT22;1703;51.964;7.642;2022-07-29T02:49:18;18.80;99.90
3380;DHT22;1703;51.964;7.642;2022-07-29T02:51:49;18.80;99.90
3380;DHT22;1703;51.964;7.642;2022-07-29T02:54:26;18.80;99.90
3380;DHT22;1703;51.964;7.642;2022-07-29T02:56:54;18.80;99.90
3380;DHT22;1703;51.964;7.642;2022-07-29T02:59:26;18.90;99.90
3380;DHT22;1703;51.964;7.642;2022-07-29T03:01:57;19.00;99.90
3380;DHT22;1703;51.964;7.642;2022-07-29T03:04:26;18.90;99.90
3380;DHT22;1703;51.964;7.642;2022-07-29T03:06:55;18.90;99.90
3380;DHT22;1703;51.964;7.642;2022-07-29T03:09:25;18.70;99.90
3380;DHT22;1703;51.964;7.642;2022-07-29T03:11:52;18.70;99.90
3380;DHT22;1703;51.964;7.642;2022-07-29T03:14:20;18.70;99.90
3380;DHT22;1703;51.964;7.642;2022-07-29T03:16:49;18.70;99.90
3380;DHT22;1703;51.964;7.642;2022-07-29T03:19:18;18.70;99.90
3380;DHT22;1703;51.964;7.642;2022-07-29T03:21:45;18.70;99.90
3380;DHT22;1703;51.964;7.642;2022-07-29T03:24:27;18.70;99.90
3380;DHT22;1703;51.964;7.642;2022-07-29T03:26:55;18.70;99.90
3380;DHT22;1703;51.964;7.642;2022-07-29T03:29:23;18.80;99.90
3380;DHT22;1703;51.964;7.642;2022-07-29T03:31:49;18.80;99.90
3380;DHT22;1703;51.964;7.642;2022-07-29T03:34:18;18.70;99.90
3380;DHT22;1703;51.964;7.642;2022-07-29T03:36:44;18.70;99.90
3380;DHT22;1703;51.964;7.642;2022-07-29T03:39:14;18.60;99.90
3380;DHT22;1703;51.964;7.642;2022-07-29T03:41:44;18.70;99.90
3380;DHT22;1703;51.964;7.642;2022-07-29T03:44:13;18.60;99.90
3380;DHT22;1703;51.964;7.642;2022-07-29T03:46:43;18.60;99.90
3380;DHT22;1703;51.964;7.642;2022-07-29T03:49:11;18.60;99.90
3380;DHT22;1703;51.964;7.642;2022-07-29T03:51:42;18.60;99.90
3380;DHT22;1703;51.964;7.642;2022-07-29T03:54:09;18.60;99.90
3380;DHT22;1703;51.964;7.642;2022-07-29T03:56:39;18.60;99.90
3380;DHT22;1703;51.964;7.642;2022-07-29T03:59:07;18.60;99.90
3380;DHT22;1703;51.964;7.642;2022-07-29T04:01:35;18.60;99.90
3380;DHT22;1703;51.964;7.642;2022-07-29T04:04:02;18.60;99.90
3380;DHT22;1703;51.964;7.642;2022-07-29T04:06:38;18.60;99.90
3380;DHT22;1703;51.964;7.642;2022-07-29T04:09:07;18.70;99.90
3380;DHT22;1703;51.964;7.642;2022-07-29T04:11:34;18.70;99.90
3380;DHT22;1703;51.964;7.642;2022-07-29T04:14:02;18.60;99.90
3380;DHT22;1703;51.964;7.642;2022-07-29T04:16:28;18.60;99.90
3380;DHT22;1703;51.964;7.642;2022-07-29T04:18:55;18.60;99.90
3380;DHT22;1703;51.964;7.642;2022-07-29T04:21:22;18.60;99.90
3380;DHT22;1703;51.964;7.642;2022-07-29T04:23:49;18.70;99.90
3380;DHT22;1703;51.964;7.642;2022-07-29T04:26:18;18.70;99.90
3380;DHT22;1703;51.964;7.642;2022-07-29T04:28:45;18.70;99.90
3380;DHT22;1703;51.964;7.642;2022-07-29T04:31:13;18.70;99.90
3380;DHT22;1703;51.964;7.642;2022-07-29T04:33:39;18.70;99.90
3380;DHT22;1703;51.964;7.642;2022-07-29T04:36:06;18.60;99.90
3380;DHT22;1703;51.964;7.642;2022-07-29T04:38:33;18.70;99.90
3380;DHT22;1703;51.964;7.642;2022-07-29T04:41:00;18.70;99.90
3380;DHT22;1703;51.964;7.642;2022-07-29T04:43:28;18.70;99.90
3380;DHT22;1703;51.964;7.642;2022-07-29T04:45:55;18.70;99.90
3380;DHT22;1703;51.964;7.642;2022-07-29T04:48:21;18.80;99.90
3380;DHT22;1703;51.964;7.642;2022-07-29T04:50:48;18.80;99.90
3380;DHT22;1703;51.964;7.642;2022-07-29T04:53:15;18.70;99.90
3380;DHT22;1703;51.964;7.642;2022-07-29T04:55:42;18.70;99.90
3380;DHT22;1703;51.964;7.642;2022-07-29T04:58:09;18.70;99.90
3380;DHT22;1703;51.964;7.642;2022-07-29T05:00:37;18.70;99.90
3380;DHT22;1703;51.964;7.642;2022-07-29T05:03:04;18.70;99.90
3380;DHT22;1703;51.964;7.642;2022-07-29T05:05:32;18.70;99.90
3380;DHT22;1703;51.964;7.642;2022-07-29T05:07:59;18.80;99.90
3380;DHT22;1703;51.964;7.642;2022-07-29T05:10:26;18.80;99.90
3380;DHT22;1703;51.964;7.642;2022-07-29T05:12:53;18.90;99.90
3380;DHT22;1703;51.964;7.642;2022-07-29T05:15:20;18.90;99.90
3380;DHT22;1703;51.964;7.642;2022-07-29T05:17:48;18.90;99.90
3380;DHT22;1703;51.964;7.642;2022-07-29T05:20:15;18.90;99.90
3380;DHT22;1703;51.964;7.642;2022-07-29T05:22:42;18.80;99.90
3380;DHT22;1703;51.964;7.642;2022-07-29T05:25:08;18.80;99.90
3380;DHT22;1703;51.964;7.642;2022-07-29T05:27:35;18.80;99.90
3380;DHT22;1703;51.964;7.642;2022-07-29T05:30:03;18.80;99.90
3380;DHT22;1703;51.964;7.642;2022-07-29T05:32:30;18.90;99.90
3380;DHT22;1703;51.964;7.642;2022-07-29T05:34:58;18.90;99.90
3380;DHT22;1703;51.964;7.642;2022-07-29T05:37:25;19.00;99.90
3380;DHT22;1703;51.964;7.642;2022-07-29T05:39:52;18.90;99.90
3380;DHT22;1703;51.964;7.642;2022-07-29T05:42:19;19.00;99.90
3380;DHT22;1703;51.964;7.642;2022-07-29T05:44:45;19.00;99.90
3380;DHT22;1703;51.964;7.642;2022-07-29T05:47:12;19.00;99.90
3380;DHT22;1703;51.964;7.642;2022-07-29T05:49:39;19.00;99.90
3380;DHT22;1703;51.964;7.642;2022-07-29T05:52:07;19.00;99.90
3380;DHT22;1703;51.964;7.642;2022-07-29T05:54:34;18.90;99.90
3380;DHT22;1703;51.964;7.642;2022-07-29T05:57:01;18.90;99.90
3380;DHT22;1703;51.964;7.642;2022-07-29T05:59:28;18.90;99.90
3380;DHT22;1703;51.964;7.642;2022-07-29T06:01:55;18.90;99.90
3380;DHT22;1703;51.964;7.642;2022-07-29T06:04:22;18.90;99.90
3380;DHT22;1703;51.964;7.642;2022-07-29T06:06:49;18.90;99.90
3380;DHT22;1703;51.964;7.642;2022-07-29T06:09:17;18.90;99.90
3380;DHT22;1703;51.964;7.642;2022-07-29T06:11:44;19.00;99.90
3380;DHT22;1703;51.964;7.642;2022-07-29T06:14:11;19.00;99.90
3380;DHT22;1703;51.964;7.642;2022-07-29T06:16:37;19.10;99.90
3380;DHT22;1703;51.964;7.642;2022-07-29T06:19:04;19.10;99.90
3380;DHT22;1703;51.964;7.642;2022-07-29T06:21:31;19.20;99.90
3380;DHT22;1703;51.964;7.642;2022-07-29T06:23:59;19.20;99.90
3380;DHT22;1703;51.964;7.642;2022-07-29T06:26:27;19.20;99.90
3380;DHT22;1703;51.964;7.642;2022-07-29T06:28:54;19.10;99.90
3380;DHT22;1703;51.964;7.642;2022-07-29T06:31:20;19.20;99.90
3380;DHT22;1703;51.964;7.642;2022-07-29T06:33:47;19.20;99.90
3380;DHT22;1703;51.964;7.642;2022-07-29T06:36:14;19.30;99.90
3380;DHT22;1703;51.964;7.642;2022-07-29T06:38:41;19.40;99.90
3380;DHT22;1703;51.964;7.642;2022-07-29T06:41:08;19.40;99.90
3380;DHT22;1703;51.964;7.642;2022-07-29T06:46:54;19.40;99.90
3380;DHT22;1703;51.964;7.642;2022-07-29T06:49:21;19.40;99.90
3380;DHT22;1703;51.964;7.642;2022-07-29T06:51:49;19.40;99.90
3380;DHT22;1703;51.964;7.642;2022-07-29T06:54:15;19.30;99.90
3380;DHT22;1703;51.964;7.642;2022-07-29T06:56:42;19.40;99.90
3380;DHT22;1703;51.964;7.642;2022-07-29T06:59:10;19.30;99.90
3380;DHT22;1703;51.964;7.642;2022-07-29T07:01:39;19.40;99.90
3380;DHT22;1703;51.964;7.642;2022-07-29T07:04:09;19.40;99.90
3380;DHT22;1703;51.964;7.642;2022-07-29T07:06:37;19.50;99.90
3380;DHT22;1703;51.964;7.642;2022-07-29T07:09:04;19.50;99.90
3380;DHT22;1703;51.964;7.642;2022-07-29T07:11:30;19.50;99.90
3380;DHT22;1703;51.964;7.642;2022-07-29T07:13:57;19.50;99.90
3380;DHT22;1703;51.964;7.642;2022-07-29T07:16:24;19.50;99.90
3380;DHT22;1703;51.964;7.642;2022-07-29T07:18:53;19.60;99.90
3380;DHT22;1703;51.964;7.642;2022-07-29T07:21:21;19.60;99.90
3380;DHT22;1703;51.964;7.642;2022-07-29T07:23:47;19.50;99.90
3380;DHT22;1703;51.964;7.642;2022-07-29T07:26:14;19.50;99.90
3380;DHT22;1703;51.964;7.642;2022-07-29T07:28:41;19.60;99.90
3380;DHT22;1703;51.964;7.642;2022-07-29T07:31:08;19.70;99.90
3380;DHT22;1703;51.964;7.642;2022-07-29T07:33:35;19.70;99.90
3380;DHT22;1703;51.964;7.642;2022-07-29T07:36:01;19.70;99.90
3380;DHT22;1703;51.964;7.642;2022-07-29T07:38:30;19.60;99.90
3380;DHT22;1703;51.964;7.642;2022-07-29T07:40:56;19.70;99.90
3380;DHT22;1703;51.964;7.642;2022-07-29T07:43:23;19.50;99.90
3380;DHT22;1703;51.964;7.642;2022-07-29T07:45:50;19.60;99.90
3380;DHT22;1703;51.964;7.642;2022-07-29T07:48:17;19.60;99.90
3380;DHT22;1703;51.964;7.642;2022-07-29T07:50:44;19.70;99.90
3380;DHT22;1703;51.964;7.642;2022-07-29T07:53:11;19.90;99.90
3380;DHT22;1703;51.964;7.642;2022-07-29T07:55:41;19.90;99.90
3380;DHT22;1703;51.964;7.642;2022-07-29T07:58:10;19.70;99.90
3380;DHT22;1703;51.964;7.642;2022-07-29T08:00:37;19.70;99.90
3380;DHT22;1703;51.964;7.642;2022-07-29T08:03:04;19.70;99.90
3380;DHT22;1703;51.964;7.642;2022-07-29T08:05:30;19.70;99.90
3380;DHT22;1703;51.964;7.642;2022-07-29T08:07:57;19.70;99.90
3380;DHT22;1703;51.964;7.642;2022-07-29T08:10:24;19.80;99.90
3380;DHT22;1703;51.964;7.642;2022-07-29T08:13:10;19.80;99.90
3380;DHT22;1703;51.964;7.642;2022-07-29T08:15:39;19.80;99.90
3380;DHT22;1703;51.964;7.642;2022-07-29T08:18:06;20.00;99.90
3380;DHT22;1703;51.964;7.642;2022-07-29T08:20:33;20.00;99.90
3380;DHT22;1703;51.964;7.642;2022-07-29T08:23:01;20.00;99.90
3380;DHT22;1703;51.964;7.642;2022-07-29T08:25:28;20.10;99.90
3380;DHT22;1703;51.964;7.642;2022-07-29T08:27:55;20.20;99.90
3380;DHT22;1703;51.964;7.642;2022-07-29T08:30:23;20.20;99.90
3380;DHT22;1703;51.964;7.642;2022-07-29T08:32:50;20.40;99.90
3380;DHT22;1703;51.964;7.642;2022-07-29T08:35:18;20.40;99.90
3380;DHT22;1703;51.964;7.642;2022-07-29T08:37:45;20.50;99.90
3380;DHT22;1703;51.964;7.642;2022-07-29T08:40:12;20.60;99.90
3380;DHT22;1703;51.964;7.642;2022-07-29T08:42:40;20.80;99.90
3380;DHT22;1703;51.964;7.642;2022-07-29T08:45:07;20.60;99.90
3380;DHT22;1703;51.964;7.642;2022-07-29T08:47:37;20.60;99.90
3380;DHT22;1703;51.964;7.642;2022-07-29T08:50:06;20.60;99.90
3380;DHT22;1703;51.964;7.642;2022-07-29T08:52:36;20.60;99.90
3380;DHT22;1703;51.964;7.642;2022-07-29T08:55:04;20.60;99.90
3380;DHT22;1703;51.964;7.642;2022-07-29T08:57:32;20.70;99.90
3380;DHT22;1703;51.964;7.642;2022-07-29T09:00:00;20.60;99.90
3380;DHT22;1703;51.964;7.642;2022-07-29T09:02:29;20.60;99.90
3380;DHT22;1703;51.964;7.642;2022-07-29T09:05:00;20.60;99.90
3380;DHT22;1703;51.964;7.642;2022-07-29T09:07:28;20.50;99.90
3380;DHT22;1703;51.964;7.642;2022-07-29T09:09:55;20.40;99.90
3380;DHT22;1703;51.964;7.642;2022-07-29T09:12:22;20.50;99.90
3380;DHT22;1703;51.964;7.642;2022-07-29T09:14:51;20.60;99.90
3380;DHT22;1703;51.964;7.642;2022-07-29T09:17:17;20.60;99.90
3380;DHT22;1703;51.964;7.642;2022-07-29T09:19:45;20.60;99.90
3380;DHT22;1703;51.964;7.642;2022-07-29T09:22:28;20.60;99.90
3380;DHT22;1703;51.964;7.642;2022-07-29T09:24:56;20.70;99.90
3380;DHT22;1703;51.964;7.642;2022-07-29T09:27:24;20.70;99.90
3380;DHT22;1703;51.964;7.642;2022-07-29T09:29:58;20.50;99.90
3380;DHT22;1703;51.964;7.642;2022-07-29T09:32:25;20.60;99.90
3380;DHT22;1703;51.964;7.642;2022-07-29T09:35:14;20.60;99.90
3380;DHT22;1703;51.964;7.642;2022-07-29T09:37:43;20.60;99.90
3380;DHT22;1703;51.964;7.642;2022-07-29T09:40:15;20.60;99.90
3380;DHT22;1703;51.964;7.642;2022-07-29T09:42:42;20.60;99.90
3380;DHT22;1703;51.964;7.642;2022-07-29T09:45:09;20.60;99.90
3380;DHT22;1703;51.964;7.642;2022-07-29T09:47:45;20.60;99.90
3380;DHT22;1703;51.964;7.642;2022-07-29T09:50:12;20.70;99.90
3380;DHT22;1703;51.964;7.642;2022-07-29T09:52:49;20.80;99.90
3380;DHT22;1703;51.964;7.642;2022-07-29T09:55:17;20.80;99.90
3380;DHT22;1703;51.964;7.642;2022-07-29T09:57:45;20.80;99.90
3380;DHT22;1703;51.964;7.642;2022-07-29T10:00:15;20.80;99.90
3380;DHT22;1703;51.964;7.642;2022-07-29T10:02:44;20.90;99.90
3380;DHT22;1703;51.964;7.642;2022-07-29T10:05:19;21.00;99.90
3380;DHT22;1703;51.964;7.642;2022-07-29T10:07:49;21.10;99.90
3380;DHT22;1703;51.964;7.642;2022-07-29T10:10:21;21.20;99.90
3380;DHT22;1703;51.964;7.642;2022-07-29T10:12:50;21.30;99.90
3380;DHT22;1703;51.964;7.642;2022-07-29T10:15:18;21.50;99.90
3380;DHT22;1703;51.964;7.642;2022-07-29T10:17:45;21.60;99.90
3380;DHT22;1703;51.964;7.642;2022-07-29T10:20:13;21.60;99.90
3380;DHT22;1703;51.964;7.642;2022-07-29T10:22:40;21.50;99.90
3380;DHT22;1703;51.964;7.642;2022-07-29T10:25:10;21.70;99.90
3380;DHT22;1703;51.964;7.642;2022-07-29T10:27:37;21.60;99.90
3380;DHT22;1703;51.964;7.642;2022-07-29T10:30:06;21.70;99.90
3380;DHT22;1703;51.964;7.642;2022-07-29T10:32:40;21.60;99.90
3380;DHT22;1703;51.964;7.642;2022-07-29T10:35:19;21.50;99.90
3380;DHT22;1703;51.964;7.642;2022-07-29T10:38:02;21.30;99.90
3380;DHT22;1703;51.964;7.642;2022-07-29T10:40:40;21.40;99.90
3380;DHT22;1703;51.964;7.642;2022-07-29T10:43:30;21.30;99.90
3380;DHT22;1703;51.964;7.642;2022-07-29T10:46:00;21.20;99.90
3380;DHT22;1703;51.964;7.642;2022-07-29T10:48:27;21.10;99.90
3380;DHT22;1703;51.964;7.642;2022-07-29T10:50:59;21.20;99.90
3380;DHT22;1703;51.964;7.642;2022-07-29T10:53:47;21.20;99.90
3380;DHT22;1703;51.964;7.642;2022-07-29T10:56:27;21.00;99.90
3380;DHT22;1703;51.964;7.642;2022-07-29T10:59:22;20.90;99.90
3380;DHT22;1703;51.964;7.642;2022-07-29T11:01:50;20.80;99.90
3380;DHT22;1703;51.964;7.642;2022-07-29T11:07:22;20.80;99.90
3380;DHT22;1703;51.964;7.642;2022-07-29T11:10:19;20.80;99.90
3380;DHT22;1703;51.964;7.642;2022-07-29T11:12:48;20.90;99.90
3380;DHT22;1703;51.964;7.642;2022-07-29T11:15:18;20.80;99.90
3380;DHT22;1703;51.964;7.642;2022-07-29T11:18:08;20.70;99.90
3380;DHT22;1703;51.964;7.642;2022-07-29T11:20:37;20.60;99.90
3380;DHT22;1703;51.964;7.642;2022-07-29T11:23:24;20.60;99.90
3380;DHT22;1703;51.964;7.642;2022-07-29T11:26:14;20.60;99.90
3380;DHT22;1703;51.964;7.642;2022-07-29T11:28:51;20.60;99.90
3380;DHT22;1703;51.964;7.642;2022-07-29T11:31:31;20.60;99.90
3380;DHT22;1703;51.964;7.642;2022-07-29T11:34:16;20.70;99.90
3380;DHT22;1703;51.964;7.642;2022-07-29T11:37:14;20.60;99.90
3380;DHT22;1703;51.964;7.642;2022-07-29T11:39:42;20.60;99.90
3380;DHT22;1703;51.964;7.642;2022-07-29T11:45:24;20.60;99.90
3380;DHT22;1703;51.964;7.642;2022-07-29T11:47:58;20.70;99.90
3380;DHT22;1703;51.964;7.642;2022-07-29T11:50:31;20.60;99.90
3380;DHT22;1703;51.964;7.642;2022-07-29T11:52:59;20.60;99.90
3380;DHT22;1703;51.964;7.642;2022-07-29T11:55:27;20.60;99.90
3380;DHT22;1703;51.964;7.642;2022-07-29T11:57:55;20.40;99.90
3380;DHT22;1703;51.964;7.642;2022-07-29T12:00:28;20.30;99.90
3380;DHT22;1703;51.964;7.642;2022-07-29T12:02:56;20.20;99.90
3380;DHT22;1703;51.964;7.642;2022-07-29T12:05:33;20.20;99.90
3380;DHT22;1703;51.964;7.642;2022-07-29T12:08:08;20.10;99.90
3380;DHT22;1703;51.964;7.642;2022-07-29T12:10:36;20.10;99.90
3380;DHT22;1703;51.964;7.642;2022-07-29T12:13:03;19.90;99.90
3380;DHT22;1703;51.964;7.642;2022-07-29T12:15:31;20.00;99.90
3380;DHT22;1703;51.964;7.642;2022-07-29T12:17:59;20.00;99.90
3380;DHT22;1703;51.964;7.642;2022-07-29T12:20:35;20.00;99.90
3380;DHT22;1703;51.964;7.642;2022-07-29T12:23:05;20.10;99.90
3380;DHT22;1703;51.964;7.642;2022-07-29T12:25:33;20.10;99.90
3380;DHT22;1703;51.964;7.642;2022-07-29T12:28:03;20.00;99.90
3380;DHT22;1703;51.964;7.642;2022-07-29T12:30:43;20.00;99.90
3380;DHT22;1703;51.964;7.642;2022-07-29T12:33:12;20.00;99.90
3380;DHT22;1703;51.964;7.642;2022-07-29T12:35:39;20.10;99.90
3380;DHT22;1703;51.964;7.642;2022-07-29T12:38:06;20.20;99.90
3380;DHT22;1703;51.964;7.642;2022-07-29T12:40:34;20.10;99.90
3380;DHT22;1703;51.964;7.642;2022-07-29T12:43:12;20.10;99.90
3380;DHT22;1703;51.964;7.642;2022-07-29T12:45:47;20.20;99.90
3380;DHT22;1703;51.964;7.642;2022-07-29T12:48:14;20.10;99.90
3380;DHT22;1703;51.964;7.642;2022-07-29T12:50:56;20.20;99.90
3380;DHT22;1703;51.964;7.642;2022-07-29T12:53:24;20.30;99.90
3380;DHT22;1703;51.964;7.642;2022-07-29T12:55:52;20.30;99.90
3380;DHT22;1703;51.964;7.642;2022-07-29T12:58:30;20.30;99.90
3380;DHT22;1703;51.964;7.642;2022-07-29T13:01:07;20.50;99.90
3380;DHT22;1703;51.964;7.642;2022-07-29T13:03:45;20.60;99.90
3380;DHT22;1703;51.964;7.642;2022-07-29T13:06:28;20.70;99.90
3380;DHT22;1703;51.964;7.642;2022-07-29T13:09:00;20.80;99.90
3380;DHT22;1703;51.964;7.642;2022-07-29T13:11:28;20.80;99.90
3380;DHT22;1703;51.964;7.642;2022-07-29T13:13:55;20.90;99.90
3380;DHT22;1703;51.964;7.642;2022-07-29T13:16:24;20.90;99.90
3380;DHT22;1703;51.964;7.642;2022-07-29T13:19:04;20.90;99.90
3380;DHT22;1703;51.964;7.642;2022-07-29T13:21:31;21.00;99.90
3380;DHT22;1703;51.964;7.642;2022-07-29T13:23:58;21.00;99.90
3380;DHT22;1703;51.964;7.642;2022-07-29T13:26:25;21.20;99.90
3380;DHT22;1703;51.964;7.642;2022-07-29T13:28:51;21.20;99.90
3380;DHT22;1703;51.964;7.642;2022-07-29T13:31:18;21.20;99.90
3380;DHT22;1703;51.964;7.642;2022-07-29T13:33:46;21.30;99.90
3380;DHT22;1703;51.964;7.642;2022-07-29T13:36:13;21.40;99.90
3380;DHT22;1703;51.964;7.642;2022-07-29T13:38:40;21.40;99.90
3380;DHT22;1703;51.964;7.642;2022-07-29T13:41:07;21.60;99.90
3380;DHT22;1703;51.964;7.642;2022-07-29T13:43:34;21.70;99.90
3380;DHT22;1703;51.964;7.642;2022-07-29T13:46:01;21.90;99.90
3380;DHT22;1703;51.964;7.642;2022-07-29T13:48:28;22.00;99.90
3380;DHT22;1703;51.964;7.642;2022-07-29T13:50:56;22.60;99.90
3380;DHT22;1703;51.964;7.642;2022-07-29T13:53:23;23.10;99.90
3380;DHT22;1703;51.964;7.642;2022-07-29T13:55:50;23.90;99.90
3380;DHT22;1703;51.964;7.642;2022-07-29T13:58:17;24.70;99.90
3380;DHT22;1703;51.964;7.642;2022-07-29T14:00:44;25.60;99.90
3380;DHT22;1703;51.964;7.642;2022-07-29T14:03:12;26.40;99.90
3380;DHT22;1703;51.964;7.642;2022-07-29T14:05:38;26.50;99.90
3380;DHT22;1703;51.964;7.642;2022-07-29T14:08:07;26.10;99.90
3380;DHT22;1703;51.964;7.642;2022-07-29T14:10:33;25.90;99.90
3380;DHT22;1703;51.964;7.642;2022-07-29T14:13:00;25.70;99.90
3380;DHT22;1703;51.964;7.642;2022-07-29T14:15:27;25.80;99.90
3380;DHT22;1703;51.964;7.642;2022-07-29T14:17:54;25.80;99.90
3380;DHT22;1703;51.964;7.642;2022-07-29T14:20:21;25.90;99.90
3380;DHT22;1703;51.964;7.642;2022-07-29T14:22:47;26.00;99.90
3380;DHT22;1703;51.964;7.642;2022-07-29T14:25:15;26.00;99.90
3380;DHT22;1703;51.964;7.642;2022-07-29T14:27:42;26.00;99.90
3380;DHT22;1703;51.964;7.642;2022-07-29T14:30:10;26.00;99.90
3380;DHT22;1703;51.964;7.642;2022-07-29T14:32:37;26.00;99.90
3380;DHT22;1703;51.964;7.642;2022-07-29T14:35:04;26.20;99.90
3380;DHT22;1703;51.964;7.642;2022-07-29T14:37:31;26.40;99.90
3380;DHT22;1703;51.964;7.642;2022-07-29T14:39:59;26.30;99.90
3380;DHT22;1703;51.964;7.642;2022-07-29T14:42:30;26.40;99.90
3380;DHT22;1703;51.964;7.642;2022-07-29T14:44:57;26.10;99.90
3380;DHT22;1703;51.964;7.642;2022-07-29T14:47:24;25.80;99.90
3380;DHT22;1703;51.964;7.642;2022-07-29T14:49:51;25.60;99.90
3380;DHT22;1703;51.964;7.642;2022-07-29T14:52:18;25.60;99.90
3380;DHT22;1703;51.964;7.642;2022-07-29T14:54:45;25.30;99.90
3380;DHT22;1703;51.964;7.642;2022-07-29T14:57:11;25.00;99.90
3380;DHT22;1703;51.964;7.642;2022-07-29T14:59:40;24.90;99.90
3380;DHT22;1703;51.964;7.642;2022-07-29T15:02:06;24.90;99.90
3380;DHT22;1703;51.964;7.642;2022-07-29T15:04:33;24.90;99.90
3380;DHT22;1703;51.964;7.642;2022-07-29T15:07:00;24.70;99.90
3380;DHT22;1703;51.964;7.642;2022-07-29T15:09:27;24.80;99.90
3380;DHT22;1703;51.964;7.642;2022-07-29T15:11:54;24.70;99.90
3380;DHT22;1703;51.964;7.642;2022-07-29T15:14:21;24.50;99.90
3380;DHT22;1703;51.964;7.642;2022-07-29T15:16:49;24.60;99.90
3380;DHT22;1703;51.964;7.642;2022-07-29T15:19:16;24.60;99.90
3380;DHT22;1703;51.964;7.642;2022-07-29T15:21:43;24.70;99.90
3380;DHT22;1703;51.964;7.642;2022-07-29T15:24:09;24.70;99.90
3380;DHT22;1703;51.964;7.642;2022-07-29T15:26:36;24.70;99.90
3380;DHT22;1703;51.964;7.642;2022-07-29T15:29:03;24.60;99.90
3380;DHT22;1703;51.964;7.642;2022-07-29T15:31:30;24.60;99.90
3380;DHT22;1703;51.964;7.642;2022-07-29T15:33:58;24.60;99.90
3380;DHT22;1703;51.964;7.642;2022-07-29T15:36:25;24.50;99.90
3380;DHT22;1703;51.964;7.642;2022-07-29T15:38:53;24.50;99.90
3380;DHT22;1703;51.964;7.642;2022-07-29T15:41:20;24.60;99.90
3380;DHT22;1703;51.964;7.642;2022-07-29T15:43:47;24.70;99.90
3380;DHT22;1703;51.964;7.642;2022-07-29T15:46:17;24.70;99.90
3380;DHT22;1703;51.964;7.642;2022-07-29T15:49:04;24.60;99.90
3380;DHT22;1703;51.964;7.642;2022-07-29T15:51:31;24.60;99.90
3380;DHT22;1703;51.964;7.642;2022-07-29T15:53:59;24.60;99.90
3380;DHT22;1703;51.964;7.642;2022-07-29T15:56:26;24.70;99.90
3380;DHT22;1703;51.964;7.642;2022-07-29T15:58:53;24.70;99.90
3380;DHT22;1703;51.964;7.642;2022-07-29T16:01:20;24.70;99.90
3380;DHT22;1703;51.964;7.642;2022-07-29T16:03:47;24.80;99.90
3380;DHT22;1703;51.964;7.642;2022-07-29T16:06:16;25.00;99.90
3380;DHT22;1703;51.964;7.642;2022-07-29T16:08:43;24.80;99.90
3380;DHT22;1703;51.964;7.642;2022-07-29T16:11:09;24.80;99.90
3380;DHT22;1703;51.964;7.642;2022-07-29T16:13:36;24.90;99.90
3380;DHT22;1703;51.964;7.642;2022-07-29T16:16:03;24.90;99.90
3380;DHT22;1703;51.964;7.642;2022-07-29T16:18:30;24.90;99.90
3380;DHT22;1703;51.964;7.642;2022-07-29T16:20:57;24.90;99.90
3380;DHT22;1703;51.964;7.642;2022-07-29T16:23:25;24.90;99.90
3380;DHT22;1703;51.964;7.642;2022-07-29T16:25:52;24.80;99.90
3380;DHT22;1703;51.964;7.642;2022-07-29T16:28:19;24.70;99.90